Time;durP1;ratioP1;P1;durP2;ratioP2;P2;SDS_P1;SDS_P2;PMS_P1;PMS_P2;Temp;Humidity;BMP_temperature;BMP_pressure;BME280_temperature;BME280_humidity;BME280_pressure;Samples;Min_cycle;Max_cycle;Signal;HPM_P1;HPM_P2
2021/10/07 00:02:16;;;;;;;13.07;10.73;;;10.40;99.90;;;;;;6216113;23;20389;-73
2021/10/07 00:04:42;;;;;;;16.05;9.93;;;10.30;99.90;;;;;;6189573;23;20012;-73
2021/10/07 00:07:08;;;;;;;15.13;9.77;;;10.30;99.90;;;;;;6164692;23;20415;-73
2021/10/07 00:09:34;;;;;;;13.68;9.15;;;10.40;99.90;;;;;;6188777;23;20027;-73
2021/10/07 00:11:59;;;;;;;12.93;9.82;;;10.30;99.90;;;;;;6215059;23;20089;-73
2021/10/07 00:14:26;;;;;;;14.15;9.93;;;10.20;99.90;;;;;;6164696;23;20469;-73
2021/10/07 00:16:52;;;;;;;17.33;9.93;;;10.20;99.90;;;;;;6164971;23;20027;-73
2021/10/07 00:19:18;;;;;;;12.60;10.07;;;10.30;99.90;;;;;;6215971;23;20024;-73
2021/10/07 00:21:43;;;;;;;12.63;9.70;;;10.50;99.90;;;;;;6189135;23;20016;-73
2021/10/07 00:24:09;;;;;;;13.77;10.55;;;10.20;99.90;;;;;;6189936;23;20036;-74
2021/10/07 00:26:45;;;;;;;13.10;9.57;;;10.10;99.90;;;;;;6190048;23;20357;-73
2021/10/07 00:31:51;;;;;;;12.18;9.20;;;10.10;99.90;;;;;;6189602;23;20020;-81
2021/10/07 00:37:06;;;;;;;13.85;10.00;;;10.10;99.90;;;;;;6215953;23;20043;-82
2021/10/07 00:39:31;;;;;;;13.15;9.80;;;10.80;99.90;;;;;;6215301;23;20012;-81
2021/10/07 00:41:57;;;;;;;12.80;9.93;;;10.10;99.90;;;;;;6189439;23;20019;-81
2021/10/07 00:44:23;;;;;;;12.27;9.20;;;10.10;99.90;;;;;;6163510;23;20070;-73
2021/10/07 00:46:52;;;;;;;11.75;9.95;;;10.70;99.90;;;;;;6188947;23;20013;-73
2021/10/07 00:49:21;;;;;;;13.15;9.32;;;10.10;99.90;;;;;;6216492;23;20062;-73
2021/10/07 00:51:47;;;;;;;14.85;9.70;;;10.10;99.90;;;;;;6188927;23;20017;-73
2021/10/07 00:54:15;;;;;;;12.00;9.77;;;10.10;99.90;;;;;;6189646;23;20016;-73
2021/10/07 00:56:42;;;;;;;11.30;9.70;;;10.00;99.90;;;;;;6164680;23;20070;-73
2021/10/07 00:59:12;;;;;;;11.13;9.25;;;10.00;99.90;;;;;;6188922;23;20083;-73
2021/10/07 01:01:38;;;;;;;14.25;9.85;;;10.10;99.90;;;;;;6163887;23;20017;-73
2021/10/07 01:04:04;;;;;;;13.15;10.60;;;10.50;99.90;;;;;;6216096;23;20020;-73
2021/10/07 01:06:30;;;;;;;15.18;9.77;;;10.50;99.90;;;;;;6188523;23;20459;-73
2021/10/07 01:08:57;;;;;;;15.25;11.23;;;10.00;99.90;;;;;;6164080;23;20031;-73
2021/10/07 01:11:23;;;;;;;19.40;12.32;;;10.20;99.90;;;;;;6188987;23;20070;-73
2021/10/07 01:13:48;;;;;;;15.63;11.75;;;10.00;99.90;;;;;;6216045;23;20044;-73
2021/10/07 01:16:16;;;;;;;16.55;11.23;;;10.00;99.90;;;;;;6188908;23;20339;-73
2021/10/07 01:18:43;;;;;;;19.90;12.65;;;10.10;99.90;;;;;;6140601;23;20013;-73
2021/10/07 01:21:11;;;;;;;22.23;13.02;;;10.00;99.90;;;;;;6188986;23;20040;-73
2021/10/07 01:23:41;;;;;;;17.30;11.88;;;10.00;99.90;;;;;;6215359;23;20450;-74
2021/10/07 01:26:09;;;;;;;13.95;11.23;;;9.90;99.90;;;;;;6188923;23;20040;-73
2021/10/07 01:28:44;;;;;;;13.60;11.13;;;9.90;99.90;;;;;;6216006;23;20023;-73
2021/10/07 01:31:11;;;;;;;15.88;11.38;;;9.90;99.90;;;;;;6189456;23;20016;-73
2021/10/07 01:33:37;;;;;;;13.75;11.02;;;9.90;99.90;;;;;;6163588;23;20020;-73
2021/10/07 01:36:04;;;;;;;16.35;11.23;;;9.90;99.90;;;;;;6163992;23;20017;-73
2021/10/07 01:38:30;;;;;;;16.73;10.70;;;9.80;99.90;;;;;;6164348;23;20023;-74
2021/10/07 01:40:56;;;;;;;16.17;11.68;;;9.80;99.90;;;;;;6215952;23;20012;-73
2021/10/07 01:43:21;;;;;;;14.02;10.70;;;9.80;99.90;;;;;;6188374;23;20343;-73
2021/10/07 01:45:49;;;;;;;15.10;10.52;;;9.80;99.90;;;;;;6215645;23;20009;-73
2021/10/07 01:48:18;;;;;;;13.85;10.73;;;9.80;99.90;;;;;;6188774;23;20022;-73
2021/10/07 01:50:45;;;;;;;15.80;10.95;;;9.70;99.90;;;;;;6187859;23;20047;-73
2021/10/07 01:53:11;;;;;;;12.68;9.90;;;9.70;99.90;;;;;;6188999;23;20023;-73
2021/10/07 01:55:37;;;;;;;13.93;10.48;;;9.70;99.90;;;;;;6163988;23;20052;-73
2021/10/07 01:58:03;;;;;;;13.27;10.00;;;9.70;99.90;;;;;;6188069;23;20021;-73
2021/10/07 02:00:30;;;;;;;13.88;10.10;;;9.60;99.90;;;;;;6189006;23;20079;-73
2021/10/07 02:02:56;;;;;;;12.75;9.82;;;9.60;99.90;;;;;;6188573;23;20017;-74
2021/10/07 02:05:21;;;;;;;13.50;9.85;;;9.60;99.90;;;;;;6188197;23;20074;-73
2021/10/07 02:07:47;;;;;;;11.70;9.25;;;9.60;99.90;;;;;;6215195;23;20021;-73
2021/10/07 02:10:16;;;;;;;12.80;9.57;;;9.60;99.90;;;;;;6188280;23;20445;-73
2021/10/07 02:12:46;;;;;;;12.80;9.32;;;9.60;99.90;;;;;;6188612;23;20090;-73
2021/10/07 02:15:13;;;;;;;13.20;9.68;;;9.60;99.90;;;;;;6188424;23;20083;-74
2021/10/07 02:17:39;;;;;;;15.88;9.80;;;9.60;99.90;;;;;;6215547;23;20017;-74
2021/10/07 02:20:07;;;;;;;13.48;9.55;;;10.00;99.90;;;;;;6163901;23;20017;-74
2021/10/07 02:22:33;;;;;;;12.57;9.80;;;9.60;99.90;;;;;;6163766;23;20084;-73
2021/10/07 02:24:59;;;;;;;14.90;10.27;;;9.60;99.90;;;;;;6162887;23;20052;-73
2021/10/07 02:27:25;;;;;;;16.63;10.68;;;9.60;99.90;;;;;;6188588;23;20017;-73
2021/10/07 02:29:50;;;;;;;18.45;10.38;;;10.50;99.90;;;;;;6215675;23;20042;-73
2021/10/07 02:32:16;;;;;;;13.55;10.70;;;9.50;99.90;;;;;;6213954;23;20008;-73
2021/10/07 02:34:42;;;;;;;26.52;10.80;;;9.50;99.90;;;;;;6187943;23;20499;-73
2021/10/07 02:37:10;;;;;;;13.52;11.30;;;9.60;99.90;;;;;;6213606;23;20008;-73
2021/10/07 02:39:36;;;;;;;13.68;11.20;;;9.50;99.90;;;;;;6187863;23;20070;-73
2021/10/07 02:42:03;;;;;;;14.65;11.70;;;9.50;99.90;;;;;;6188626;23;20012;-73
2021/10/07 02:44:29;;;;;;;63.80;12.90;;;9.50;99.90;;;;;;6214882;23;20088;-74
2021/10/07 02:46:55;;;;;;;21.92;11.77;;;9.50;99.90;;;;;;6215262;23;20044;-73
2021/10/07 02:49:21;;;;;;;29.98;11.50;;;9.50;99.90;;;;;;6215191;23;20040;-74
2021/10/07 02:51:47;;;;;;;20.17;11.52;;;9.80;99.90;;;;;;6213784;23;20091;-73
2021/10/07 02:54:13;;;;;;;20.02;12.10;;;9.60;99.90;;;;;;6214675;23;20086;-73
2021/10/07 02:56:38;;;;;;;31.23;11.85;;;9.50;99.90;;;;;;6187870;23;20017;-73
2021/10/07 02:59:04;;;;;;;34.63;11.88;;;9.50;99.90;;;;;;6188109;23;20036;-74
2021/10/07 03:01:30;;;;;;;19.90;11.07;;;9.50;99.90;;;;;;6214888;23;20088;-73
2021/10/07 03:03:56;;;;;;;17.83;11.00;;;9.40;99.90;;;;;;6214833;23;20016;-73
2021/10/07 03:06:21;;;;;;;13.52;11.32;;;9.30;99.90;;;;;;6163317;23;20446;-73
2021/10/07 03:08:47;;;;;;;19.40;11.43;;;9.40;99.90;;;;;;6213254;23;20017;-73
2021/10/07 03:11:14;;;;;;;13.57;10.98;;;9.60;99.90;;;;;;6213428;23;20013;-73
2021/10/07 03:13:40;;;;;;;33.63;10.27;;;9.40;99.90;;;;;;6214420;23;20013;-73
2021/10/07 03:16:06;;;;;;;18.08;9.75;;;9.40;99.90;;;;;;6187970;23;20013;-73
2021/10/07 03:18:32;;;;;;;12.77;9.65;;;9.40;99.90;;;;;;6187774;23;20020;-74
2021/10/07 03:20:57;;;;;;;16.05;9.70;;;9.90;99.90;;;;;;6188111;23;20378;-74
2021/10/07 03:23:24;;;;;;;13.95;9.68;;;9.50;99.90;;;;;;6215043;23;20009;-73
2021/10/07 03:25:49;;;;;;;11.02;9.85;;;9.30;99.90;;;;;;6187298;23;20223;-73
2021/10/07 03:28:15;;;;;;;17.85;9.80;;;9.30;99.90;;;;;;6213398;23;20088;-73
2021/10/07 03:30:41;;;;;;;14.25;9.60;;;9.70;99.90;;;;;;6214778;23;20012;-73
2021/10/07 03:33:08;;;;;;;23.30;9.98;;;9.30;99.90;;;;;;6188023;23;20020;-73
2021/10/07 03:35:35;;;;;;;20.38;9.60;;;9.30;99.90;;;;;;6187969;23;20028;-73
2021/10/07 03:38:01;;;;;;;25.02;10.00;;;9.40;99.90;;;;;;6188287;23;20020;-73
2021/10/07 03:40:27;;;;;;;18.75;9.90;;;9.50;99.90;;;;;;6214766;23;20454;-73
2021/10/07 03:42:53;;;;;;;29.88;9.90;;;9.40;99.90;;;;;;6214377;23;20012;-73
2021/10/07 03:45:18;;;;;;;32.72;10.25;;;9.40;99.90;;;;;;6187401;23;20020;-73
2021/10/07 03:47:44;;;;;;;43.78;9.77;;;9.40;99.90;;;;;;6214726;23;20056;-73
2021/10/07 03:50:10;;;;;;;50.83;10.85;;;9.40;99.90;;;;;;6188124;23;20043;-74
2021/10/07 03:52:36;;;;;;;37.63;10.95;;;9.40;99.90;;;;;;6214691;23;20017;-73
2021/10/07 03:55:01;;;;;;;33.28;10.25;;;9.50;99.90;;;;;;6214618;23;20013;-73
2021/10/07 03:57:29;;;;;;;37.53;10.27;;;9.50;99.90;;;;;;6162615;23;20512;-74
2021/10/07 03:59:55;;;;;;;35.72;11.60;;;9.70;99.90;;;;;;6213275;23;20009;-74
2021/10/07 04:02:21;;;;;;;29.33;11.57;;;9.70;99.90;;;;;;6214301;23;20362;-73
2021/10/07 04:04:47;;;;;;;78.25;12.38;;;9.60;99.90;;;;;;6214457;23;20102;-73
2021/10/07 04:07:13;;;;;;;81.30;13.00;;;9.60;99.90;;;;;;6214549;23;20092;-73
2021/10/07 04:09:39;;;;;;;52.45;13.30;;;9.60;99.90;;;;;;6187335;23;20020;-73
2021/10/07 04:12:05;;;;;;;45.53;13.10;;;10.10;99.90;;;;;;6187961;23;20316;-73
2021/10/07 04:14:31;;;;;;;78.43;13.20;;;9.70;99.90;;;;;;6187814;23;20016;-73
2021/10/07 04:16:56;;;;;;;39.53;11.65;;;9.70;99.90;;;;;;6213035;23;20066;-73
2021/10/07 04:19:22;;;;;;;53.67;12.55;;;9.70;99.90;;;;;;6187797;23;20016;-73
2021/10/07 04:21:48;;;;;;;39.88;11.60;;;9.70;99.90;;;;;;6214921;23;20009;-74
2021/10/07 04:24:14;;;;;;;30.63;10.57;;;9.80;99.90;;;;;;6212850;23;20074;-74
2021/10/07 04:26:40;;;;;;;45.15;11.50;;;9.80;99.90;;;;;;6214908;23;20342;-73
2021/10/07 04:29:06;;;;;;;54.13;11.25;;;10.30;99.90;;;;;;6214545;23;20048;-73
2021/10/07 04:31:31;;;;;;;31.02;10.85;;;10.10;99.90;;;;;;6214435;23;20048;-74
2021/10/07 04:33:57;;;;;;;26.63;11.20;;;9.70;99.90;;;;;;6188452;23;20013;-73
2021/10/07 04:36:23;;;;;;;25.20;10.77;;;9.80;99.90;;;;;;6215561;23;20020;-73
2021/10/07 04:38:49;;;;;;;27.45;10.73;;;9.70;99.90;;;;;;6189817;23;20017;-73
2021/10/07 04:41:15;;;;;;;38.40;10.98;;;9.70;99.90;;;;;;6189458;23;20013;-74
2021/10/07 04:43:40;;;;;;;50.58;11.30;;;9.90;99.90;;;;;;6189695;23;20072;-73
2021/10/07 04:46:06;;;;;;;58.97;12.85;;;9.70;99.90;;;;;;6188959;23;20009;-74
2021/10/07 04:48:32;;;;;;;43.63;12.60;;;9.70;99.90;;;;;;6216180;23;20048;-73
2021/10/07 04:50:58;;;;;;;46.08;12.13;;;9.70;99.90;;;;;;6214050;23;20018;-73
2021/10/07 04:53:24;;;;;;;50.10;12.60;;;9.80;99.90;;;;;;6216074;23;20020;-74
2021/10/07 04:55:54;;;;;;;67.03;12.48;;;9.70;99.90;;;;;;6189555;23;20016;-73
2021/10/07 04:58:23;;;;;;;63.90;13.65;;;9.80;99.90;;;;;;6215640;23;20015;-73
2021/10/07 05:00:50;;;;;;;29.20;11.73;;;9.70;99.90;;;;;;6189516;23;20115;-73
2021/10/07 05:03:15;;;;;;;44.55;12.07;;;9.70;99.90;;;;;;6216135;23;20017;-73
2021/10/07 05:05:42;;;;;;;43.33;12.15;;;9.70;99.90;;;;;;6188883;23;20016;-73
2021/10/07 05:08:09;;;;;;;36.85;11.57;;;9.70;99.90;;;;;;6188786;23;20293;-73
2021/10/07 05:10:35;;;;;;;44.78;12.77;;;9.70;99.90;;;;;;6215912;23;20021;-73
2021/10/07 05:13:01;;;;;;;31.98;11.57;;;9.70;99.90;;;;;;6164087;23;20075;-73
2021/10/07 05:15:26;;;;;;;35.53;12.70;;;9.80;99.90;;;;;;6216244;23;20012;-73
2021/10/07 05:17:53;;;;;;;58.45;13.73;;;9.70;99.90;;;;;;6188939;23;20098;-73
2021/10/07 05:20:18;;;;;;;40.40;12.85;;;9.80;99.90;;;;;;6188872;23;20012;-73
2021/10/07 05:22:44;;;;;;;75.82;13.25;;;9.70;99.90;;;;;;6215562;23;20019;-73
2021/10/07 05:25:11;;;;;;;44.13;11.35;;;9.80;99.90;;;;;;6215882;23;20023;-74
2021/10/07 05:27:37;;;;;;;66.63;11.02;;;9.70;99.90;;;;;;6215681;23;20013;-73
2021/10/07 05:30:05;;;;;;;59.90;10.95;;;9.70;99.90;;;;;;6216385;23;20075;-73
2021/10/07 05:32:31;;;;;;;58.33;10.18;;;9.70;99.90;;;;;;6215731;23;20454;-73
2021/10/07 05:34:57;;;;;;;76.45;11.73;;;9.70;99.90;;;;;;6215494;23;20013;-73
2021/10/07 05:37:23;;;;;;;56.92;10.10;;;9.70;99.90;;;;;;6163381;23;20020;-74
2021/10/07 05:39:48;;;;;;;81.07;10.57;;;10.00;99.90;;;;;;6188803;23;20087;-73
2021/10/07 05:42:14;;;;;;;62.83;10.35;;;9.60;99.90;;;;;;6189062;23;20058;-73
2021/10/07 05:44:40;;;;;;;66.93;10.80;;;9.70;99.90;;;;;;6188419;23;20016;-73
2021/10/07 05:47:06;;;;;;;69.90;11.48;;;9.60;99.90;;;;;;6215839;23;20020;-73
2021/10/07 05:49:32;;;;;;;67.03;11.02;;;9.60;99.90;;;;;;6188785;23;20013;-74
2021/10/07 05:51:58;;;;;;;59.45;10.23;;;9.50;99.90;;;;;;6214091;23;20017;-73
2021/10/07 05:54:24;;;;;;;71.20;9.48;;;9.50;99.90;;;;;;6215228;23;20012;-73
2021/10/07 05:56:49;;;;;;;63.95;9.95;;;9.50;99.90;;;;;;6215522;23;20062;-73
2021/10/07 05:59:16;;;;;;;98.90;11.00;;;9.50;99.90;;;;;;6164107;23;20439;-73
2021/10/07 06:01:42;;;;;;;45.10;9.55;;;9.50;99.90;;;;;;6189089;23;20013;-73
2021/10/07 06:04:08;;;;;;;43.35;10.95;;;9.40;99.90;;;;;;6164134;23;20084;-73
2021/10/07 06:06:34;;;;;;;46.47;10.23;;;9.90;99.90;;;;;;6188776;23;20091;-73
2021/10/07 06:09:02;;;;;;;44.83;10.02;;;9.50;99.90;;;;;;6188443;23;20458;-84
2021/10/07 06:11:30;;;;;;;32.28;9.60;;;9.50;99.90;;;;;;6214772;23;20020;-78
2021/10/07 06:13:56;;;;;;;76.40;10.35;;;10.00;99.90;;;;;;6186494;23;20027;-74
2021/10/07 06:16:22;;;;;;;45.33;8.63;;;9.50;99.90;;;;;;6187420;23;20023;-73
2021/10/07 06:18:50;;;;;;;61.60;8.43;;;9.40;99.90;;;;;;6162649;23;20067;-74
2021/10/07 06:21:15;;;;;;;36.22;7.68;;;9.40;99.90;;;;;;6187917;23;20446;-74
2021/10/07 06:23:44;;;;;;;34.28;7.63;;;9.40;99.90;;;;;;6215095;23;20067;-74
2021/10/07 06:26:10;;;;;;;30.33;7.85;;;9.50;99.90;;;;;;6188261;23;20039;-74
2021/10/07 06:28:36;;;;;;;20.95;7.93;;;9.40;99.90;;;;;;6214791;23;20327;-74
2021/10/07 06:31:03;;;;;;;28.75;8.27;;;9.40;99.90;;;;;;6163349;23;20021;-74
2021/10/07 06:33:30;;;;;;;67.30;8.30;;;9.40;99.90;;;;;;6214453;23;20050;-74
2021/10/07 06:35:58;;;;;;;42.65;8.40;;;9.40;99.90;;;;;;6214714;23;20388;-75
2021/10/07 06:38:27;;;;;;;36.90;8.40;;;9.50;99.90;;;;;;6214790;23;20079;-74
2021/10/07 06:40:53;;;;;;;21.67;7.07;;;9.40;99.90;;;;;;6187463;23;20012;-74
2021/10/07 06:43:18;;;;;;;39.10;8.65;;;9.50;99.90;;;;;;6213517;23;20036;-81
2021/10/07 06:45:47;;;;;;;37.25;7.45;;;9.60;99.90;;;;;;6188044;23;20009;-80
2021/10/07 06:48:12;;;;;;;20.80;7.90;;;9.50;99.90;;;;;;6188250;23;20407;-81
2021/10/07 06:50:42;;;;;;;38.30;8.00;;;9.20;99.90;;;;;;6163682;23;20072;-81
2021/10/07 06:53:14;;;;;;;41.53;7.78;;;9.40;99.90;;;;;;6213773;23;20083;-83
2021/10/07 06:55:40;;;;;;;36.33;7.40;;;9.60;99.90;;;;;;6163457;23;20451;-82
2021/10/07 06:58:06;;;;;;;32.22;7.80;;;9.60;99.90;;;;;;6162323;23;20401;-84
2021/10/07 07:00:36;;;;;;;49.55;7.85;;;10.30;99.90;;;;;;6164048;23;20067;-89
2021/10/07 07:03:02;;;;;;;35.45;7.57;;;9.70;99.90;;;;;;6164327;23;20071;-83
2021/10/07 07:05:28;;;;;;;26.10;7.45;;;9.60;99.90;;;;;;6185075;23;20023;-74
2021/10/07 07:07:54;;;;;;;34.70;8.25;;;9.70;99.90;;;;;;6159982;23;20024;-75
2021/10/07 07:10:20;;;;;;;81.78;8.20;;;9.70;99.90;;;;;;6211656;23;20019;-75
2021/10/07 07:12:47;;;;;;;17.30;6.82;;;9.70;99.90;;;;;;6185855;23;20012;-74
2021/10/07 07:15:14;;;;;;;28.63;8.20;;;9.70;99.90;;;;;;6184578;23;20731;-75
2021/10/07 07:17:40;;;;;;;43.47;7.40;;;9.80;99.90;;;;;;6211490;23;20076;-74
2021/10/07 07:20:07;;;;;;;20.73;7.43;;;9.80;99.90;;;;;;6185216;23;20047;-75
2021/10/07 07:22:33;;;;;;;28.10;7.65;;;9.80;99.90;;;;;;6159998;23;20009;-74
2021/10/07 07:24:59;;;;;;;53.20;7.88;;;9.80;99.90;;;;;;6211845;23;20013;-75
2021/10/07 07:27:25;;;;;;;27.40;7.28;;;9.90;99.90;;;;;;6184807;23;20013;-75
2021/10/07 07:29:51;;;;;;;43.15;8.27;;;9.90;99.90;;;;;;6185296;23;20030;-75
2021/10/07 07:32:17;;;;;;;26.08;7.55;;;9.90;99.90;;;;;;6184530;23;20352;-78
2021/10/07 07:34:43;;;;;;;30.23;7.63;;;10.20;99.90;;;;;;6212154;23;20016;-79
2021/10/07 07:37:08;;;;;;;30.42;8.32;;;9.90;99.90;;;;;;6185394;23;20409;-78
2021/10/07 07:39:35;;;;;;;23.33;7.82;;;10.00;99.90;;;;;;6159815;23;20012;-78
2021/10/07 07:42:01;;;;;;;19.08;7.85;;;10.00;99.90;;;;;;6160170;23;20009;-78
2021/10/07 07:44:27;;;;;;;43.72;8.65;;;10.00;99.90;;;;;;6185243;23;20086;-77
2021/10/07 07:47:03;;;;;;;29.77;7.65;;;10.00;99.90;;;;;;6212765;23;20012;-78
2021/10/07 07:49:32;;;;;;;19.17;7.57;;;10.50;99.90;;;;;;6159436;23;20020;-79
2021/10/07 07:51:58;;;;;;;28.70;7.35;;;10.10;99.90;;;;;;6210326;23;20395;-79
2021/10/07 07:54:23;;;;;;;28.65;7.95;;;10.10;99.90;;;;;;6212366;23;20044;-78
2021/10/07 07:56:53;;;;;;;75.25;32.15;;;10.60;99.90;;;;;;6212840;23;20095;-80
2021/10/07 07:59:50;;;;;;;35.30;13.82;;;10.20;99.90;;;;;;6212559;23;20024;-84
2021/10/07 08:02:18;;;;;;;40.15;16.30;;;10.20;99.90;;;;;;6184344;23;20009;-83
2021/10/07 08:04:47;;;;;;;29.98;12.68;;;10.40;99.90;;;;;;6184511;23;20012;-82
2021/10/07 08:07:14;;;;;;;26.60;15.73;;;10.70;99.90;;;;;;6161236;23;20021;-83
2021/10/07 08:09:49;;;;;;;24.52;7.55;;;10.30;99.90;;;;;;6163436;23;20465;-83
2021/10/07 08:12:16;;;;;;;;;;;10.30;99.90;;;;;;6163820;23;20021;-78
2021/10/07 08:14:43;;;;;;;32.25;7.60;;;10.30;99.90;;;;;;6187563;23;19919;-78
2021/10/07 08:17:13;;;;;;;28.90;7.03;;;10.40;99.90;;;;;;6162083;23;20031;-78
2021/10/07 08:19:39;;;;;;;20.73;7.50;;;10.30;99.90;;;;;;6214098;23;20020;-78
2021/10/07 08:22:05;;;;;;;17.40;7.13;;;10.10;99.90;;;;;;6214300;23;20012;-77
2021/10/07 08:24:35;;;;;;;16.83;7.95;;;10.40;99.90;;;;;;6186961;23;20020;-76
2021/10/07 08:27:02;;;;;;;23.85;7.63;;;10.40;99.90;;;;;;6214256;23;20015;-76
2021/10/07 08:29:31;;;;;;;13.50;7.47;;;10.40;99.90;;;;;;6214343;23;20013;-76
2021/10/07 08:31:59;;;;;;;13.52;8.02;;;10.40;99.90;;;;;;6188451;23;20048;-77
2021/10/07 08:34:25;;;;;;;14.25;8.45;;;10.50;99.90;;;;;;6162430;23;20042;-77
2021/10/07 08:36:54;;;;;;;21.98;8.80;;;10.50;99.90;;;;;;6212393;23;20455;-86
2021/10/07 08:39:21;;;;;;;15.90;8.70;;;10.60;99.90;;;;;;6184483;23;20044;-87
2021/10/07 08:42:13;;;;;;;19.83;8.13;;;10.50;99.90;;;;;;6161990;23;20029;-87
2021/10/07 08:44:39;;;;;;;28.88;8.57;;;10.60;99.90;;;;;;6162651;23;20367;-87
2021/10/07 08:47:05;;;;;;;27.77;8.68;;;10.60;99.90;;;;;;6163426;23;20031;-87
2021/10/07 08:49:42;;;;;;;16.25;8.40;;;10.50;99.90;;;;;;6186002;23;20147;-87
2021/10/07 08:52:20;;;;;;;32.30;9.13;;;10.60;99.90;;;;;;6163612;23;20020;-88
2021/10/07 08:54:54;;;;;;;15.23;8.93;;;10.60;99.90;;;;;;6163627;23;20021;-88
2021/10/07 08:57:20;;;;;;;17.33;9.43;;;10.30;99.90;;;;;;6161357;23;20103;-82
2021/10/07 08:59:46;;;;;;;14.68;9.95;;;10.60;99.90;;;;;;6187111;23;20052;-84
2021/10/07 09:05:29;;;;;;;13.23;9.50;;;10.80;99.90;;;;;;6186598;23;20311;-84
2021/10/07 09:08:02;;;;;;;17.35;10.30;;;10.60;99.90;;;;;;6181576;23;20023;-85
2021/10/07 09:10:36;;;;;;;12.95;8.55;;;10.70;99.90;;;;;;6182887;23;20455;-84
2021/10/07 09:13:04;;;;;;;17.10;10.17;;;10.70;99.90;;;;;;6181536;23;20047;-84
2021/10/07 09:15:30;;;;;;;14.95;9.45;;;10.70;99.90;;;;;;6156818;23;20447;-84
2021/10/07 09:18:05;;;;;;;12.82;8.95;;;10.80;99.90;;;;;;6157030;23;20388;-84
2021/10/07 09:20:39;;;;;;;13.88;9.23;;;10.70;99.90;;;;;;6156973;23;20082;-84
2021/10/07 09:23:32;;;;;;;16.20;10.57;;;10.80;99.90;;;;;;6156949;23;20021;-84
2021/10/07 09:26:03;;;;;;;15.35;11.05;;;10.90;99.90;;;;;;6181980;23;20459;-84
2021/10/07 09:28:50;;;;;;;18.25;10.40;;;10.90;99.90;;;;;;6156728;23;20072;-84
2021/10/07 09:31:16;;;;;;;;;;;11.00;99.90;;;;;;6157637;23;20048;-84
2021/10/07 09:33:44;;;;;;;17.73;9.88;;;11.60;99.90;;;;;;6156885;23;19947;-84
2021/10/07 09:36:15;;;;;;;14.40;10.60;;;11.00;99.90;;;;;;6183330;23;20017;-84
2021/10/07 09:38:41;;;;;;;16.40;10.98;;;11.00;99.90;;;;;;6181666;23;20436;-85
2021/10/07 09:41:23;;;;;;;16.10;10.43;;;11.00;99.90;;;;;;6155761;23;20101;-83
2021/10/07 09:44:01;;;;;;;17.10;11.38;;;11.70;99.90;;;;;;6156428;23;20009;-83
2021/10/07 09:46:45;;;;;;;16.52;10.32;;;11.10;99.90;;;;;;6156245;23;20009;-83
2021/10/07 09:49:14;;;;;;;17.42;11.50;;;11.10;99.90;;;;;;6183178;23;20013;-82
2021/10/07 09:51:53;;;;;;;15.13;11.15;;;11.10;99.90;;;;;;6181391;23;20522;-82
2021/10/07 09:54:25;;;;;;;16.80;11.43;;;11.20;99.90;;;;;;6156102;23;20059;-75
2021/10/07 09:56:56;;;;;;;16.90;11.55;;;11.20;99.90;;;;;;6181689;23;20017;-75
2021/10/07 09:59:23;;;;;;;15.15;11.65;;;11.20;99.90;;;;;;6181463;23;20017;-75
2021/10/07 10:01:51;;;;;;;17.95;12.43;;;11.30;99.90;;;;;;6180577;23;20020;-74
2021/10/07 10:04:17;;;;;;;17.55;11.63;;;11.30;99.90;;;;;;6181940;23;20024;-75
2021/10/07 10:06:43;;;;;;;17.23;11.48;;;11.40;99.90;;;;;;6182906;23;20009;-74
2021/10/07 10:09:09;;;;;;;17.60;11.30;;;11.40;99.90;;;;;;6203339;23;20477;-81
2021/10/07 10:11:35;;;;;;;19.50;12.68;;;11.40;99.90;;;;;;6212711;23;20021;-82
2021/10/07 10:14:00;;;;;;;15.57;11.73;;;11.50;99.90;;;;;;6186215;23;20083;-82
2021/10/07 10:16:26;;;;;;;16.90;12.20;;;11.50;99.90;;;;;;6186324;23;20056;-82
2021/10/07 10:18:57;;;;;;;17.23;12.45;;;11.50;99.90;;;;;;6213285;23;20063;-81
2021/10/07 10:21:24;;;;;;;17.92;12.48;;;11.60;99.90;;;;;;6186007;23;20094;-80
2021/10/07 10:23:52;;;;;;;19.27;13.55;;;11.50;99.90;;;;;;6186096;23;20016;-80
2021/10/07 10:26:18;;;;;;;19.15;13.50;;;11.50;99.90;;;;;;6212680;23;20580;-80
2021/10/07 10:28:51;;;;;;;19.02;13.85;;;11.50;99.90;;;;;;6212624;23;20024;-80
2021/10/07 10:31:17;;;;;;;21.35;14.13;;;11.60;99.90;;;;;;6186097;23;20016;-80
2021/10/07 10:33:47;;;;;;;21.60;14.73;;;11.70;99.90;;;;;;6186147;23;20024;-80
2021/10/07 10:36:27;;;;;;;23.50;14.98;;;11.70;99.90;;;;;;6212353;23;20101;-80
2021/10/07 10:39:00;;;;;;;22.63;15.85;;;11.70;99.90;;;;;;6185898;23;20017;-78
2021/10/07 10:41:48;;;;;;;21.40;14.30;;;12.20;99.90;;;;;;6186041;23;20041;-78
2021/10/07 10:44:46;;;;;;;20.85;13.27;;;11.80;99.90;;;;;;6172836;23;20347;-78
2021/10/07 10:47:11;;;;;;;27.63;16.30;;;11.80;99.90;;;;;;6160184;23;20015;-77
2021/10/07 10:49:37;;;;;;;21.63;15.18;;;12.30;99.90;;;;;;6190573;23;20012;-77
2021/10/07 10:52:26;;;;;;;25.52;17.75;;;11.80;99.90;;;;;;6188493;23;20446;-77
2021/10/07 10:54:59;;;;;;;24.52;15.73;;;11.90;99.90;;;;;;6203132;23;20075;-77
2021/10/07 10:57:28;;;;;;;26.02;17.55;;;11.90;99.90;;;;;;6188302;23;20055;-77
2021/10/07 11:00:16;;;;;;;25.38;16.35;;;11.80;99.90;;;;;;6188730;23;20044;-79
2021/10/07 11:02:54;;;;;;;27.90;17.33;;;11.90;99.90;;;;;;6216019;23;20012;-79
2021/10/07 11:05:44;;;;;;;27.63;17.45;;;11.90;99.90;;;;;;6215424;23;20019;-79
2021/10/07 11:08:21;;;;;;;26.80;17.48;;;12.00;99.90;;;;;;6209603;23;20450;-79
2021/10/07 11:10:50;;;;;;;26.90;17.83;;;12.00;99.90;;;;;;6187564;23;20492;-79
2021/10/07 11:13:22;;;;;;;26.40;18.15;;;12.00;99.90;;;;;;6213652;23;20056;-79
2021/10/07 11:15:53;;;;;;;26.13;17.67;;;12.10;99.90;;;;;;6214806;23;20012;-80
2021/10/07 11:18:22;;;;;;;24.17;17.35;;;12.20;99.90;;;;;;6187937;23;20016;-79
2021/10/07 11:21:00;;;;;;;28.38;18.70;;;12.20;99.90;;;;;;6213264;23;20480;-79
2021/10/07 11:23:29;;;;;;;23.83;17.02;;;12.30;99.90;;;;;;6213118;23;20066;-74
2021/10/07 11:25:56;;;;;;;25.85;17.75;;;12.30;99.90;;;;;;6187922;23;20431;-74
2021/10/07 11:28:31;;;;;;;28.70;18.10;;;12.30;99.90;;;;;;6187934;23;20216;-74
2021/10/07 11:31:07;;;;;;;26.95;18.77;;;12.30;99.90;;;;;;6187552;23;20016;-74
2021/10/07 11:33:34;;;;;;;29.92;18.38;;;12.30;99.90;;;;;;6214504;23;20435;-74
2021/10/07 11:36:08;;;;;;;30.30;17.95;;;12.20;99.90;;;;;;6214506;23;20462;-74
2021/10/07 11:38:38;;;;;;;32.70;19.25;;;12.30;99.90;;;;;;6214588;23;20012;-74
2021/10/07 11:41:04;;;;;;;26.25;17.98;;;12.30;99.90;;;;;;6212486;23;20431;-74
2021/10/07 11:43:31;;;;;;;28.13;18.80;;;12.30;99.90;;;;;;6189182;23;20008;-74
2021/10/07 11:46:04;;;;;;;26.67;18.35;;;12.40;99.90;;;;;;6190323;23;20008;-74
2021/10/07 11:48:30;;;;;;;27.33;19.00;;;12.40;99.90;;;;;;6216564;23;20435;-74
2021/10/07 11:51:02;;;;;;;30.77;20.80;;;12.40;99.90;;;;;;6190518;23;20019;-74
2021/10/07 11:53:36;;;;;;;27.35;18.92;;;12.40;99.90;;;;;;6191706;23;20458;-74
2021/10/07 11:56:25;;;;;;;29.23;19.85;;;12.30;99.90;;;;;;6217050;23;20087;-74
2021/10/07 11:58:54;;;;;;;30.38;19.92;;;12.40;99.90;;;;;;6189804;23;20012;-74
2021/10/07 12:01:22;;;;;;;32.30;20.63;;;12.30;99.90;;;;;;6216658;23;20451;-74
2021/10/07 12:03:48;;;;;;;32.25;21.25;;;12.30;99.90;;;;;;6216716;23;20016;-74
2021/10/07 12:06:16;;;;;;;32.63;20.45;;;12.40;99.90;;;;;;6190003;23;20059;-74
2021/10/07 12:08:43;;;;;;;35.05;20.15;;;12.40;99.90;;;;;;6216338;23;20020;-74
2021/10/07 12:11:24;;;;;;;31.52;19.38;;;12.50;99.90;;;;;;6215376;23;20016;-74
2021/10/07 12:13:58;;;;;;;28.25;19.65;;;12.50;99.90;;;;;;6189506;23;20052;-74
2021/10/07 12:16:27;;;;;;;28.20;19.60;;;12.50;99.90;;;;;;6164900;23;20212;-74
2021/10/07 12:18:54;;;;;;;27.85;19.20;;;12.60;99.90;;;;;;6216682;23;20049;-74
2021/10/07 12:21:22;;;;;;;30.58;18.80;;;12.60;99.90;;;;;;6189880;23;20008;-74
2021/10/07 12:23:51;;;;;;;25.58;18.90;;;12.70;99.90;;;;;;6188167;23;20008;-74
2021/10/07 12:26:26;;;;;;;24.55;18.38;;;12.90;99.90;;;;;;6189641;23;20048;-75
2021/10/07 12:28:52;;;;;;;27.23;18.70;;;12.80;99.90;;;;;;6189713;23;20083;-78
2021/10/07 12:31:23;;;;;;;25.95;19.27;;;12.90;99.90;;;;;;6190185;23;20240;-74
2021/10/07 12:34:30;;;;;;;25.83;18.27;;;12.90;99.90;;;;;;6164409;23;20518;-74
2021/10/07 12:37:05;;;;;;;30.58;18.95;;;12.80;99.90;;;;;;6100240;23;20077;-80
2021/10/07 12:39:42;;;;;;;26.67;18.33;;;12.40;99.90;;;;;;6180600;23;20449;-79
2021/10/07 12:42:17;;;;;;;28.67;19.38;;;12.70;99.90;;;;;;6165551;23;20020;-79
2021/10/07 12:44:50;;;;;;;28.70;19.07;;;12.80;99.90;;;;;;6217171;23;20009;-79
2021/10/07 12:47:27;;;;;;;26.20;19.08;;;12.80;99.90;;;;;;6189585;23;20092;-79
2021/10/07 12:49:56;;;;;;;28.65;18.60;;;12.80;99.90;;;;;;6189589;23;20017;-79
2021/10/07 12:52:30;;;;;;;24.90;18.23;;;12.80;99.90;;;;;;6189976;23;20343;-79